Time;durP1;ratioP1;P1;durP2;ratioP2;P2;SDS_P1;SDS_P2;PMS_P1;PMS_P2;Temp;Humidity;BMP_temperature;BMP_pressure;BME280_temperature;BME280_humidity;BME280_pressure;Samples;Min_cycle;Max_cycle;Signal;HPM_P1;HPM_P2
2023/05/14 00:00:35;;;;;;;1.63;1.63;;;7.70;99.90;;;;;;5015757;28;20202;-71
2023/05/14 00:03:01;;;;;;;1.77;1.67;;;7.70;99.90;;;;;;5015748;28;20251;-70
2023/05/14 00:05:27;;;;;;;1.27;1.27;;;7.70;99.90;;;;;;5015488;28;20309;-69
2023/05/14 00:07:52;;;;;;;3.63;1.67;;;7.60;99.90;;;;;;5015868;28;20196;-70
2023/05/14 00:10:20;;;;;;;0.63;0.63;;;7.60;99.90;;;;;;5015991;28;20257;-69
2023/05/14 00:12:46;;;;;;;1.42;1.40;;;7.50;99.90;;;;;;5015568;28;20190;-70
2023/05/14 00:15:12;;;;;;;2.00;1.30;;;7.40;99.90;;;;;;5015801;28;20179;-71
2023/05/14 00:17:37;;;;;;;0.50;0.50;;;7.40;99.90;;;;;;5015477;28;20430;-70
2023/05/14 00:20:06;;;;;;;1.97;1.87;;;7.40;99.90;;;;;;5015492;28;20549;-71
2023/05/14 00:22:33;;;;;;;0.75;0.75;;;7.40;99.90;;;;;;4997673;28;20202;-69
2023/05/14 00:24:58;;;;;;;1.15;1.05;;;7.50;99.90;;;;;;5015307;28;20539;-71
2023/05/14 00:27:24;;;;;;;3.63;1.50;;;7.50;99.90;;;;;;5015255;28;20168;-70
2023/05/14 00:29:50;;;;;;;0.88;0.88;;;7.50;99.90;;;;;;5015302;28;20293;-71
2023/05/14 00:32:16;;;;;;;2.57;2.37;;;7.50;99.90;;;;;;5015308;28;20669;-71
2023/05/14 00:34:41;;;;;;;0.90;0.90;;;7.50;99.90;;;;;;5015341;28;20171;-71
2023/05/14 00:37:07;;;;;;;1.20;1.20;;;7.50;99.90;;;;;;5014970;28;20265;-70
2023/05/14 00:39:33;;;;;;;1.07;1.07;;;7.50;99.90;;;;;;5015084;28;20176;-70
2023/05/14 00:41:59;;;;;;;1.75;1.60;;;7.50;99.90;;;;;;5014835;28;20234;-71
2023/05/14 00:44:24;;;;;;;1.63;1.53;;;7.50;99.90;;;;;;5015194;28;20631;-70
2023/05/14 00:46:51;;;;;;;2.57;2.47;;;7.50;99.90;;;;;;5014673;28;20167;-70
2023/05/14 00:49:17;;;;;;;1.30;1.30;;;7.60;99.90;;;;;;5015036;28;20167;-71
2023/05/14 00:51:45;;;;;;;3.03;2.92;;;7.60;99.90;;;;;;5015202;28;20282;-70
2023/05/14 00:54:15;;;;;;;3.35;3.17;;;7.60;99.90;;;;;;5014803;28;20168;-70
2023/05/14 00:56:43;;;;;;;1.10;1.00;;;7.70;99.90;;;;;;5014776;28;20183;-70
2023/05/14 00:59:09;;;;;;;0.60;0.60;;;7.70;99.90;;;;;;5014700;28;20217;-71
2023/05/14 01:01:35;;;;;;;0.57;0.57;;;7.60;99.90;;;;;;5014585;28;20240;-70
2023/05/14 01:04:02;;;;;;;0.95;0.60;;;7.60;99.90;;;;;;5014537;28;20171;-71
2023/05/14 01:06:33;;;;;;;0.40;0.40;;;7.60;99.90;;;;;;5014145;28;20179;-71
2023/05/14 01:09:12;;;;;;;1.60;1.50;;;7.70;99.90;;;;;;5014540;28;20166;-70
2023/05/14 01:11:48;;;;;;;0.50;0.50;;;7.70;99.90;;;;;;5014265;28;20590;-70
2023/05/14 01:14:27;;;;;;;0.70;0.55;;;7.70;99.90;;;;;;5014505;28;20258;-70
2023/05/14 01:17:01;;;;;;;0.60;0.55;;;7.70;99.90;;;;;;5014363;28;20178;-70
2023/05/14 01:19:38;;;;;;;1.15;0.93;;;7.70;99.90;;;;;;5014410;28;20174;-71
2023/05/14 01:22:05;;;;;;;5.65;1.73;;;7.60;99.90;;;;;;5014298;28;20522;-69
2023/05/14 01:24:30;;;;;;;0.85;0.85;;;7.80;99.90;;;;;;5014468;28;20246;-69
2023/05/14 01:27:05;;;;;;;2.10;0.67;;;8.00;99.90;;;;;;5014049;28;20267;-69
2023/05/14 01:29:33;;;;;;;3.30;1.20;;;8.10;99.90;;;;;;4996562;28;20163;-69
2023/05/14 01:32:01;;;;;;;1.55;1.45;;;8.30;99.90;;;;;;5014203;28;20202;-69
2023/05/14 01:34:28;;;;;;;1.92;1.83;;;8.40;99.90;;;;;;5014216;28;20536;-70
2023/05/14 01:36:56;;;;;;;6.90;2.47;;;8.50;99.90;;;;;;5013827;28;20179;-71
2023/05/14 01:39:24;;;;;;;1.70;1.60;;;8.60;99.90;;;;;;5014135;28;20175;-71
2023/05/14 01:41:51;;;;;;;0.88;0.88;;;8.70;99.90;;;;;;5013830;28;20250;-70
2023/05/14 01:44:17;;;;;;;1.90;1.77;;;8.80;99.90;;;;;;5014041;28;20590;-71
2023/05/14 01:46:43;;;;;;;1.70;1.00;;;8.80;99.90;;;;;;5013860;28;20537;-71
2023/05/14 01:49:09;;;;;;;1.60;0.70;;;8.80;99.90;;;;;;5014045;28;20175;-69
2023/05/14 01:51:34;;;;;;;2.97;2.87;;;8.80;99.90;;;;;;5013916;28;20187;-70
2023/05/14 01:54:00;;;;;;;3.03;1.50;;;8.90;99.90;;;;;;5013946;28;20171;-71
2023/05/14 01:56:26;;;;;;;2.47;1.17;;;9.00;99.90;;;;;;5013682;28;20249;-71
2023/05/14 01:58:51;;;;;;;1.33;1.23;;;9.00;99.90;;;;;;5013896;28;20216;-71
2023/05/14 02:01:17;;;;;;;1.37;0.80;;;9.10;99.90;;;;;;5013579;28;20194;-71
2023/05/14 02:03:43;;;;;;;1.60;1.50;;;9.10;99.90;;;;;;5013802;28;20180;-69
2023/05/14 02:06:08;;;;;;;0.70;0.70;;;9.10;99.90;;;;;;5013572;28;20175;-71
2023/05/14 02:08:34;;;;;;;0.70;0.70;;;9.20;99.90;;;;;;5013838;28;20179;-69
2023/05/14 02:10:59;;;;;;;3.03;2.83;;;9.20;99.90;;;;;;5013792;28;20246;-70
2023/05/14 02:13:25;;;;;;;2.83;1.93;;;9.20;99.90;;;;;;5013541;28;20187;-70
2023/05/14 02:15:51;;;;;;;2.20;2.00;;;9.30;99.90;;;;;;5013406;28;20176;-70
2023/05/14 02:18:17;;;;;;;2.40;2.20;;;9.30;99.90;;;;;;5013079;28;20442;-69
2023/05/14 02:20:42;;;;;;;2.63;2.47;;;9.30;99.90;;;;;;5013593;28;20194;-70
2023/05/14 02:23:08;;;;;;;3.13;2.40;;;9.30;99.90;;;;;;5013329;28;20214;-71
2023/05/14 02:25:34;;;;;;;1.43;1.30;;;9.30;99.90;;;;;;5013354;28;20206;-69
2023/05/14 02:27:59;;;;;;;1.43;1.13;;;9.30;99.90;;;;;;5013500;28;20175;-69
2023/05/14 02:30:25;;;;;;;2.30;1.57;;;9.30;99.90;;;;;;5013344;28;20195;-70
2023/05/14 02:32:51;;;;;;;3.30;3.00;;;9.50;99.90;;;;;;5013499;28;20175;-69
2023/05/14 02:35:16;;;;;;;1.43;1.37;;;9.60;99.90;;;;;;5013476;28;20655;-70
2023/05/14 02:37:42;;;;;;;1.90;1.80;;;9.60;99.90;;;;;;5013195;28;20180;-70
2023/05/14 02:40:08;;;;;;;3.03;1.53;;;9.60;99.90;;;;;;5013408;28;20254;-69
2023/05/14 02:42:34;;;;;;;2.05;1.45;;;9.70;99.90;;;;;;5013496;28;20199;-70
2023/05/14 02:45:00;;;;;;;1.95;1.85;;;9.70;99.90;;;;;;5013356;28;20526;-69
2023/05/14 02:47:25;;;;;;;1.13;0.97;;;9.70;99.90;;;;;;5013074;28;20256;-70
2023/05/14 02:49:51;;;;;;;1.47;1.37;;;9.70;99.90;;;;;;5013330;28;20309;-70
2023/05/14 02:52:16;;;;;;;2.53;2.33;;;9.70;99.90;;;;;;5013141;28;20195;-71
2023/05/14 02:54:42;;;;;;;1.63;1.63;;;9.70;99.90;;;;;;5013612;28;20171;-70
2023/05/14 02:57:08;;;;;;;1.60;1.17;;;9.80;99.90;;;;;;5013067;28;20225;-71
2023/05/14 02:59:33;;;;;;;1.67;1.40;;;9.90;99.90;;;;;;5013227;28;20180;-71
2023/05/14 03:01:59;;;;;;;1.57;1.47;;;9.80;99.90;;;;;;5012987;28;20226;-69
2023/05/14 03:04:24;;;;;;;1.63;1.53;;;9.90;99.90;;;;;;5013269;28;20218;-71
2023/05/14 03:06:50;;;;;;;2.57;2.47;;;9.90;99.90;;;;;;5012834;28;20179;-70
2023/05/14 03:09:16;;;;;;;1.60;1.50;;;9.90;99.90;;;;;;5013089;28;20172;-69
2023/05/14 03:11:41;;;;;;;1.80;1.53;;;9.80;99.90;;;;;;5012818;28;20210;-70
2023/05/14 03:14:07;;;;;;;1.63;1.53;;;9.80;99.90;;;;;;5013225;28;20172;-71
2023/05/14 03:16:32;;;;;;;1.93;1.83;;;9.90;99.90;;;;;;5012861;28;20266;-71
2023/05/14 03:18:58;;;;;;;1.23;1.00;;;10.00;99.90;;;;;;5013151;28;20168;-70
2023/05/14 03:21:24;;;;;;;1.77;1.67;;;10.00;99.90;;;;;;5012792;28;20538;-69
2023/05/14 03:23:51;;;;;;;1.33;1.00;;;10.00;99.90;;;;;;5012906;28;20171;-71
2023/05/14 03:26:17;;;;;;;2.00;1.83;;;10.00;99.90;;;;;;5012766;28;20409;-70
2023/05/14 03:28:43;;;;;;;2.10;1.67;;;10.10;99.90;;;;;;5012915;28;20263;-71
2023/05/14 03:31:09;;;;;;;1.50;1.33;;;10.20;99.90;;;;;;5015854;28;20270;-69
2023/05/14 03:33:35;;;;;;;2.07;1.97;;;10.20;99.90;;;;;;5016389;28;20274;-70
2023/05/14 03:36:00;;;;;;;1.80;1.47;;;10.30;99.90;;;;;;5013783;28;20258;-70
2023/05/14 03:38:26;;;;;;;0.50;0.50;;;10.30;99.90;;;;;;5016285;28;20456;-69
2023/05/14 03:40:52;;;;;;;0.63;0.63;;;10.30;99.90;;;;;;5016199;28;20200;-71
2023/05/14 03:43:17;;;;;;;2.23;2.10;;;10.30;99.90;;;;;;5015252;28;20199;-69
2023/05/14 03:45:43;;;;;;;1.67;1.40;;;10.20;99.90;;;;;;5016059;28;20211;-70
2023/05/14 03:48:08;;;;;;;2.37;2.17;;;10.20;99.90;;;;;;5016292;28;20210;-71
2023/05/14 03:50:34;;;;;;;1.60;1.40;;;10.30;99.90;;;;;;5015963;28;20187;-70
2023/05/14 03:53:00;;;;;;;1.90;1.80;;;10.40;99.90;;;;;;4998682;28;20535;-71
2023/05/14 03:55:25;;;;;;;0.57;0.57;;;10.40;99.90;;;;;;5015954;28;20248;-70
2023/05/14 03:57:51;;;;;;;0.83;0.83;;;10.40;99.90;;;;;;5015872;28;20175;-69
2023/05/14 04:00:17;;;;;;;2.53;2.43;;;10.30;99.90;;;;;;5015912;28;20690;-69
2023/05/14 04:02:43;;;;;;;2.10;2.00;;;10.20;99.90;;;;;;5016056;28;20199;-71
2023/05/14 04:05:08;;;;;;;1.73;1.63;;;10.10;99.90;;;;;;5015673;28;20171;-71
2023/05/14 04:07:34;;;;;;;2.67;1.83;;;10.10;99.90;;;;;;5015525;28;20171;-70
2023/05/14 04:10:01;;;;;;;1.77;1.70;;;10.20;99.90;;;;;;5015805;28;20509;-70
2023/05/14 04:12:26;;;;;;;6.70;2.22;;;10.30;99.90;;;;;;5015450;28;20195;-69
2023/05/14 04:14:52;;;;;;;0.70;0.70;;;10.30;99.90;;;;;;5015534;28;20176;-70
2023/05/14 04:17:18;;;;;;;2.20;0.80;;;10.40;99.90;;;;;;5015317;28;20171;-71
2023/05/14 04:19:43;;;;;;;2.10;1.97;;;10.40;99.90;;;;;;5015357;28;20199;-70
2023/05/14 04:22:09;;;;;;;0.50;0.50;;;10.50;99.90;;;;;;5015399;28;20450;-70
2023/05/14 04:24:34;;;;;;;1.00;1.00;;;10.50;99.90;;;;;;5015469;28;20179;-70
2023/05/14 04:27:00;;;;;;;1.03;1.03;;;10.40;99.90;;;;;;5015149;28;20207;-71
2023/05/14 04:29:26;;;;;;;2.00;1.90;;;10.40;99.90;;;;;;5015369;28;20198;-70
2023/05/14 04:31:52;;;;;;;6.00;2.23;;;10.50;99.90;;;;;;5015749;28;20728;-70
2023/05/14 04:34:17;;;;;;;0.75;0.75;;;10.50;99.90;;;;;;5015230;28;20636;-71
2023/05/14 04:36:43;;;;;;;2.00;1.90;;;10.50;99.90;;;;;;5015007;28;20200;-69
2023/05/14 04:39:11;;;;;;;2.20;1.43;;;10.40;99.90;;;;;;5015185;28;20176;-70
2023/05/14 04:41:36;;;;;;;2.03;1.93;;;10.50;99.90;;;;;;5014488;28;20215;-71
2023/05/14 04:44:02;;;;;;;1.13;1.10;;;10.50;99.90;;;;;;5015168;28;20413;-70
2023/05/14 04:46:28;;;;;;;1.33;1.03;;;10.50;99.90;;;;;;5014787;28;20211;-70
2023/05/14 04:48:55;;;;;;;0.97;0.87;;;10.60;99.90;;;;;;5014934;28;20442;-70
2023/05/14 04:51:21;;;;;;;2.03;1.60;;;10.70;99.90;;;;;;5014802;28;20936;-70
2023/05/14 04:53:46;;;;;;;2.13;2.03;;;10.70;99.90;;;;;;4997354;28;20407;-69
2023/05/14 04:56:12;;;;;;;1.57;1.47;;;10.70;99.90;;;;;;5014993;28;20771;-70
2023/05/14 04:58:38;;;;;;;3.20;3.00;;;10.80;99.90;;;;;;5014822;28;20175;-70
2023/05/14 05:01:04;;;;;;;2.67;1.77;;;10.80;99.90;;;;;;5014598;28;20238;-70
2023/05/14 05:03:30;;;;;;;0.73;0.73;;;10.80;99.90;;;;;;5014686;28;20530;-71
2023/05/14 05:05:56;;;;;;;2.23;2.10;;;10.80;99.90;;;;;;5014410;28;20409;-70
2023/05/14 05:08:22;;;;;;;3.40;2.63;;;10.90;99.90;;;;;;5014679;28;20180;-69
2023/05/14 05:10:47;;;;;;;1.00;1.00;;;11.00;99.90;;;;;;5014605;28;20422;-69
2023/05/14 05:13:15;;;;;;;2.43;1.23;;;11.10;99.90;;;;;;5014338;28;20610;-70
2023/05/14 05:15:41;;;;;;;1.90;1.80;;;11.20;99.90;;;;;;5014580;28;20634;-69
2023/05/14 05:18:07;;;;;;;2.30;1.53;;;11.30;99.90;;;;;;5014411;28;20395;-70
2023/05/14 05:20:33;;;;;;;1.27;1.27;;;11.30;99.90;;;;;;5014237;28;20966;-71
2023/05/14 05:22:58;;;;;;;3.97;3.17;;;11.40;99.90;;;;;;5014465;28;20237;-70
2023/05/14 05:25:24;;;;;;;3.40;1.87;;;11.70;99.90;;;;;;5014355;28;20164;-70
2023/05/14 05:27:49;;;;;;;1.50;1.40;;;11.90;99.90;;;;;;5014437;28;20168;-70
2023/05/14 05:30:15;;;;;;;1.83;1.73;;;11.90;99.90;;;;;;5014109;28;20191;-71
2023/05/14 05:32:41;;;;;;;1.93;1.80;;;11.90;99.90;;;;;;5014168;28;20262;-69
2023/05/14 05:35:07;;;;;;;1.07;1.07;;;12.10;99.90;;;;;;5014299;28;20569;-70
2023/05/14 05:37:32;;;;;;;2.00;1.90;;;12.10;99.90;;;;;;5013993;28;20632;-69
2023/05/14 05:39:58;;;;;;;2.97;1.70;;;12.20;99.90;;;;;;5014142;28;20433;-71
2023/05/14 05:42:24;;;;;;;1.07;1.07;;;12.30;99.90;;;;;;5013939;28;20199;-69
2023/05/14 05:44:49;;;;;;;1.10;1.10;;;12.50;99.90;;;;;;5014169;28;20199;-70
2023/05/14 05:47:15;;;;;;;1.73;1.63;;;12.50;99.90;;;;;;5013861;28;20197;-70
2023/05/14 05:49:41;;;;;;;2.90;2.70;;;12.60;99.90;;;;;;5013886;28;20171;-70
2023/05/14 05:52:07;;;;;;;2.93;2.73;;;12.70;99.90;;;;;;5013148;28;20812;-71
2023/05/14 05:54:33;;;;;;;2.10;1.40;;;12.60;99.90;;;;;;5014013;28;20222;-71
2023/05/14 05:56:59;;;;;;;2.87;2.20;;;12.60;99.90;;;;;;5013673;28;20858;-70
2023/05/14 05:59:25;;;;;;;1.23;1.13;;;12.70;99.90;;;;;;5013720;28;20891;-70
2023/05/14 06:01:51;;;;;;;0.80;0.80;;;12.60;99.90;;;;;;5013501;28;20461;-69
2023/05/14 06:04:17;;;;;;;2.50;1.50;;;12.70;99.90;;;;;;5013774;28;20891;-70
2023/05/14 06:06:42;;;;;;;1.57;1.23;;;12.80;99.90;;;;;;5013567;28;20419;-70
2023/05/14 06:09:08;;;;;;;1.53;1.43;;;13.00;99.90;;;;;;5013601;28;20172;-71
2023/05/14 06:11:34;;;;;;;1.10;1.10;;;13.30;99.90;;;;;;4995722;28;20218;-71
2023/05/14 06:14:00;;;;;;;1.90;1.80;;;13.70;99.90;;;;;;5013609;28;20564;-71
2023/05/14 06:16:26;;;;;;;2.30;2.13;;;14.40;99.90;;;;;;5013412;28;20417;-71
2023/05/14 06:18:53;;;;;;;2.87;1.73;;;15.40;99.90;;;;;;5013761;28;20180;-70
2023/05/14 06:21:18;;;;;;;0.90;0.90;;;16.70;99.70;;;;;;5013291;28;20198;-71
2023/05/14 06:23:44;;;;;;;0.47;0.47;;;17.50;97.80;;;;;;5013417;28;20410;-70
2023/05/14 06:26:10;;;;;;;0.60;0.60;;;17.90;96.00;;;;;;5013374;28;20584;-71
2023/05/14 06:28:35;;;;;;;1.20;1.20;;;17.70;95.10;;;;;;5013318;28;20178;-70
2023/05/14 06:31:01;;;;;;;1.23;1.17;;;17.40;94.30;;;;;;5013314;28;20199;-71
2023/05/14 06:33:30;;;;;;;0.87;0.87;;;16.70;94.20;;;;;;5013308;28;20171;-71
2023/05/14 06:35:59;;;;;;;0.70;0.70;;;16.30;95.00;;;;;;5013400;28;20176;-70
2023/05/14 06:38:25;;;;;;;0.97;0.97;;;16.00;95.80;;;;;;5013623;28;20442;-70
2023/05/14 06:40:54;;;;;;;0.40;0.40;;;15.90;95.20;;;;;;5013241;28;20454;-71
2023/05/14 06:43:20;;;;;;;0.60;0.60;;;15.60;93.80;;;;;;5013237;28;20817;-71
2023/05/14 06:45:49;;;;;;;0.40;0.40;;;15.40;94.10;;;;;;5013043;28;20415;-71
2023/05/14 06:48:17;;;;;;;0.67;0.67;;;15.30;93.50;;;;;;5013341;28;20647;-70
2023/05/14 06:50:43;;;;;;;0.70;0.70;;;15.10;94.80;;;;;;5011412;28;20434;-68
2023/05/14 06:53:09;;;;;;;0.83;0.83;;;15.10;95.80;;;;;;5011499;28;20425;-69
2023/05/14 06:55:35;;;;;;;0.63;0.63;;;15.20;95.50;;;;;;5011974;28;20414;-70
2023/05/14 06:58:00;;;;;;;1.10;1.00;;;15.40;95.30;;;;;;5012036;28;20180;-70
2023/05/14 07:00:27;;;;;;;1.03;1.00;;;15.60;95.90;;;;;;5012909;28;20293;-69
2023/05/14 07:02:53;;;;;;;0.40;0.40;;;15.60;95.10;;;;;;4995721;28;20204;-69
2023/05/14 07:05:18;;;;;;;0.60;0.60;;;15.60;95.30;;;;;;4999150;28;20439;-69
2023/05/14 07:07:44;;;;;;;0.87;0.87;;;15.70;95.30;;;;;;5017377;28;20195;-69
2023/05/14 07:10:10;;;;;;;1.00;0.60;;;15.70;94.10;;;;;;5016992;28;20547;-70
2023/05/14 07:12:36;;;;;;;1.57;1.47;;;15.50;94.20;;;;;;5016715;28;20187;-69
2023/05/14 07:15:01;;;;;;;0.40;0.40;;;15.50;94.00;;;;;;4999328;28;20190;-69
2023/05/14 07:17:27;;;;;;;0.63;0.63;;;16.00;94.70;;;;;;5016816;28;20495;-70
2023/05/14 07:19:54;;;;;;;0.90;0.90;;;16.40;93.30;;;;;;5016973;28;20228;-69
2023/05/14 07:22:20;;;;;;;0.50;0.50;;;16.90;92.10;;;;;;5016652;28;20556;-69
2023/05/14 07:24:46;;;;;;;1.27;0.70;;;17.30;91.40;;;;;;5016783;28;20754;-70
2023/05/14 07:27:12;;;;;;;0.50;0.50;;;17.70;91.20;;;;;;5016581;28;20405;-70
2023/05/14 07:29:37;;;;;;;1.27;0.80;;;18.00;90.40;;;;;;4997997;28;20176;-70
2023/05/14 07:32:03;;;;;;;0.93;0.93;;;18.70;89.40;;;;;;5016784;28;20230;-70
2023/05/14 07:34:29;;;;;;;0.40;0.40;;;19.50;87.90;;;;;;4999228;28;20197;-69
2023/05/14 07:36:55;;;;;;;0.60;0.60;;;19.60;84.00;;;;;;5015824;28;20556;-70
2023/05/14 07:39:20;;;;;;;1.60;1.50;;;19.40;82.10;;;;;;5015102;28;20266;-69
2023/05/14 07:41:46;;;;;;;0.50;0.50;;;19.00;82.70;;;;;;5015705;28;20206;-70
2023/05/14 07:44:12;;;;;;;1.70;1.37;;;18.50;83.00;;;;;;5016192;28;20175;-69
2023/05/14 07:46:37;;;;;;;0.60;0.60;;;18.20;85.80;;;;;;5015849;28;20175;-70
2023/05/14 07:49:03;;;;;;;0.87;0.87;;;18.00;85.40;;;;;;5016147;28;20259;-70
2023/05/14 07:51:29;;;;;;;0.40;0.40;;;18.00;85.60;;;;;;5015946;28;20257;-70
2023/05/14 07:53:54;;;;;;;0.60;0.60;;;17.80;85.10;;;;;;5015882;28;20171;-70
2023/05/14 07:56:23;;;;;;;0.50;0.50;;;18.00;86.70;;;;;;5015729;28;20172;-70
2023/05/14 07:58:50;;;;;;;0.60;0.60;;;18.20;85.50;;;;;;4998351;28;20179;-70
2023/05/14 08:01:16;;;;;;;0.47;0.47;;;18.10;83.60;;;;;;5015701;28;20465;-70
2023/05/14 08:03:41;;;;;;;0.77;0.60;;;17.70;85.90;;;;;;5015838;28;20495;-70
2023/05/14 08:06:07;;;;;;;0.43;0.43;;;17.20;86.80;;;;;;5015557;28;20499;-69
2023/05/14 08:08:33;;;;;;;0.90;0.77;;;16.80;87.80;;;;;;5015833;28;20185;-69
2023/05/14 08:10:59;;;;;;;1.10;1.00;;;16.30;88.30;;;;;;5015562;28;20197;-68
2023/05/14 08:13:25;;;;;;;0.97;0.93;;;15.90;89.80;;;;;;5015555;28;20617;-67
2023/05/14 08:15:51;;;;;;;0.50;0.50;;;15.70;90.00;;;;;;5014410;28;20449;-69
2023/05/14 08:18:16;;;;;;;0.90;0.60;;;15.40;90.50;;;;;;5014734;28;20722;-71
2023/05/14 08:20:42;;;;;;;0.57;0.57;;;15.20;91.20;;;;;;5014707;28;20441;-70
2023/05/14 08:23:08;;;;;;;1.20;1.10;;;15.10;91.70;;;;;;5013749;28;20206;-71
2023/05/14 08:25:34;;;;;;;0.70;0.70;;;15.00;92.70;;;;;;5015332;28;20176;-71
2023/05/14 08:28:00;;;;;;;0.50;0.50;;;14.90;93.20;;;;;;5015630;28;20176;-72
2023/05/14 08:30:26;;;;;;;1.33;1.23;;;14.80;93.80;;;;;;5015616;28;20527;-71
2023/05/14 08:32:52;;;;;;;0.60;0.60;;;14.70;94.70;;;;;;5015277;28;20518;-73
2023/05/14 08:35:18;;;;;;;0.67;0.67;;;14.60;95.60;;;;;;5015290;28;20456;-71
2023/05/14 08:37:44;;;;;;;1.47;1.37;;;14.40;97.70;;;;;;5015635;28;20179;-72
2023/05/14 08:40:10;;;;;;;0.83;0.83;;;14.10;99.40;;;;;;5015003;28;20794;-71
2023/05/14 08:42:39;;;;;;;0.70;0.70;;;13.90;99.90;;;;;;5015276;28;20472;-70
2023/05/14 08:45:10;;;;;;;0.73;0.73;;;13.90;99.90;;;;;;5015346;28;20497;-72
2023/05/14 08:47:36;;;;;;;0.90;0.90;;;13.90;99.90;;;;;;5015411;28;20485;-71
2023/05/14 08:50:04;;;;;;;0.40;0.40;;;13.90;99.90;;;;;;5015040;28;20449;-72
2023/05/14 08:52:31;;;;;;;0.50;0.50;;;13.90;99.90;;;;;;5014847;28;20628;-70
2023/05/14 08:54:59;;;;;;;0.60;0.60;;;14.00;99.90;;;;;;4997435;28;20501;-70
2023/05/14 08:57:26;;;;;;;0.50;0.50;;;14.10;99.90;;;;;;5015018;28;20415;-70
2023/05/14 08:59:53;;;;;;;0.63;0.57;;;14.10;99.90;;;;;;5014536;28;20828;-70
2023/05/14 09:02:23;;;;;;;0.97;0.97;;;14.30;99.80;;;;;;5013237;28;20831;-70
2023/05/14 09:04:54;;;;;;;1.43;0.60;;;14.70;99.70;;;;;;4997353;28;20472;-70
2023/05/14 09:07:20;;;;;;;0.57;0.57;;;15.00;98.40;;;;;;5014487;28;20456;-71
2023/05/14 09:09:46;;;;;;;0.67;0.67;;;15.30;97.70;;;;;;5014492;28;20398;-70
2023/05/14 09:12:12;;;;;;;1.33;0.83;;;15.70;97.30;;;;;;5014419;28;20195;-70
2023/05/14 09:14:37;;;;;;;1.27;0.87;;;16.00;96.50;;;;;;5014482;28;20826;-71
2023/05/14 09:17:03;;;;;;;1.27;1.27;;;16.40;96.30;;;;;;5014235;28;20187;-70
2023/05/14 09:19:29;;;;;;;1.07;1.07;;;16.90;95.50;;;;;;5014400;28;20263;-70
2023/05/14 09:21:59;;;;;;;0.83;0.83;;;17.40;94.90;;;;;;5014227;28;20209;-70
2023/05/14 09:24:28;;;;;;;1.53;1.00;;;17.70;92.50;;;;;;5014541;28;20413;-70
2023/05/14 09:26:56;;;;;;;0.83;0.83;;;18.20;93.00;;;;;;5014026;28;20421;-70
2023/05/14 09:29:26;;;;;;;0.60;0.60;;;18.70;89.10;;;;;;5014140;28;20888;-70
2023/05/14 09:31:52;;;;;;;0.70;0.70;;;19.10;87.90;;;;;;5014015;28;20445;-70
2023/05/14 09:34:29;;;;;;;0.87;0.50;;;19.20;86.80;;;;;;5014183;28;20414;-71
2023/05/14 09:37:03;;;;;;;0.97;0.70;;;19.10;85.70;;;;;;5013979;28;20417;-70
2023/05/14 09:39:29;;;;;;;0.77;0.77;;;19.00;82.40;;;;;;5014083;28;20417;-71
2023/05/14 09:41:56;;;;;;;0.50;0.50;;;18.90;83.50;;;;;;5013749;28;20549;-70
2023/05/14 09:44:22;;;;;;;0.60;0.60;;;18.70;86.50;;;;;;5014221;28;20793;-70
2023/05/14 09:46:48;;;;;;;1.37;1.27;;;18.40;85.90;;;;;;5013819;28;20414;-71
2023/05/14 09:49:14;;;;;;;0.60;0.60;;;17.90;88.50;;;;;;5013843;28;20452;-70
2023/05/14 09:51:40;;;;;;;0.43;0.43;;;17.80;88.50;;;;;;5014050;28;20452;-70
2023/05/14 09:54:07;;;;;;;0.90;0.90;;;18.00;88.40;;;;;;5013843;28;20893;-71
2023/05/14 09:56:33;;;;;;;1.03;0.97;;;18.10;87.60;;;;;;5013625;28;20182;-70
2023/05/14 09:58:59;;;;;;;0.93;0.90;;;17.90;86.70;;;;;;5013947;28;20420;-70
2023/05/14 10:01:27;;;;;;;0.50;0.50;;;17.50;88.40;;;;;;5013477;28;20437;-70
2023/05/14 10:03:54;;;;;;;0.73;0.73;;;17.20;87.50;;;;;;5013606;28;20415;-70
2023/05/14 10:06:22;;;;;;;0.60;0.60;;;16.90;89.40;;;;;;5013445;28;20467;-71
2023/05/14 10:08:53;;;;;;;0.30;0.30;;;16.70;89.70;;;;;;5013797;28;20796;-70
2023/05/14 10:11:26;;;;;;;0.90;0.80;;;16.40;90.40;;;;;;5013382;28;20799;-70
2023/05/14 10:14:11;;;;;;;2.53;1.47;;;16.30;91.90;;;;;;4995882;28;20963;-70
2023/05/14 10:16:42;;;;;;;0.57;0.57;;;16.40;90.50;;;;;;5013451;28;20419;-69
2023/05/14 10:19:10;;;;;;;0.40;0.40;;;16.30;92.50;;;;;;5013585;28;20446;-70
2023/05/14 10:21:37;;;;;;;1.43;1.33;;;15.90;93.80;;;;;;5013358;28;20865;-70
2023/05/14 10:24:04;;;;;;;0.90;0.73;;;15.50;94.90;;;;;;5013676;28;20460;-70
2023/05/14 10:26:31;;;;;;;1.17;1.17;;;15.40;96.10;;;;;;5013324;28;20407;-70
2023/05/14 10:28:58;;;;;;;1.27;1.23;;;15.40;96.80;;;;;;5013503;28;20952;-71
2023/05/14 10:31:48;;;;;;;1.93;1.83;;;15.40;97.00;;;;;;5013231;28;20431;-70
2023/05/14 10:34:44;;;;;;;0.53;0.53;;;15.30;97.60;;;;;;5002058;28;20517;-70
2023/05/14 10:37:19;;;;;;;1.30;1.20;;;15.10;98.20;;;;;;5012670;28;20441;-70
2023/05/14 10:39:48;;;;;;;1.37;1.37;;;14.70;98.90;;;;;;5015871;28;20397;-70
2023/05/14 10:42:25;;;;;;;0.90;0.90;;;14.40;99.50;;;;;;5017069;28;20441;-70
2023/05/14 10:45:04;;;;;;;0.80;0.80;;;14.30;99.90;;;;;;5017209;28;20433;-71
2023/05/14 10:47:35;;;;;;;1.70;1.60;;;14.20;99.90;;;;;;5017102;28;20749;-70
2023/05/14 10:50:04;;;;;;;0.70;0.70;;;14.40;99.90;;;;;;5015598;28;20446;-69
2023/05/14 10:52:30;;;;;;;1.33;1.23;;;14.40;99.90;;;;;;5016536;28;20942;-70
2023/05/14 10:55:01;;;;;;;1.47;1.37;;;14.30;99.90;;;;;;5015505;28;20418;-70
2023/05/14 10:57:28;;;;;;;1.00;1.00;;;14.30;99.90;;;;;;4998389;28;20420;-70
2023/05/14 10:59:55;;;;;;;2.30;2.17;;;14.50;99.90;;;;;;5016681;28;20829;-71
2023/05/14 11:02:35;;;;;;;1.03;1.00;;;14.80;99.90;;;;;;5016902;28;21004;-70
2023/05/14 11:05:07;;;;;;;0.70;0.70;;;15.20;99.40;;;;;;5017095;28;20402;-70
2023/05/14 11:07:39;;;;;;;1.17;1.13;;;15.40;99.30;;;;;;5016580;28;20460;-70
2023/05/14 11:10:07;;;;;;;0.50;0.50;;;15.60;98.80;;;;;;5016868;28;20450;-70
2023/05/14 11:12:34;;;;;;;1.57;1.47;;;15.90;97.90;;;;;;5016733;28;20778;-71
2023/05/14 11:15:02;;;;;;;1.27;1.17;;;16.10;97.50;;;;;;5016777;28;20415;-70
2023/05/14 11:17:30;;;;;;;1.00;1.00;;;16.30;97.20;;;;;;5016684;28;20430;-71
2023/05/14 11:19:56;;;;;;;1.10;1.10;;;16.60;97.20;;;;;;5016478;28;20414;-70
2023/05/14 11:22:22;;;;;;;1.00;1.00;;;16.80;96.90;;;;;;5016472;28;20478;-71
2023/05/14 11:24:48;;;;;;;0.80;0.80;;;17.00;96.30;;;;;;5016753;28;20814;-70
2023/05/14 11:27:15;;;;;;;1.50;1.40;;;17.10;95.80;;;;;;5016305;28;20411;-71
2023/05/14 11:29:45;;;;;;;0.60;0.60;;;17.30;95.70;;;;;;5016510;28;20487;-70
2023/05/14 11:32:12;;;;;;;0.60;0.60;;;17.30;95.30;;;;;;5016569;28;20844;-70
2023/05/14 11:34:38;;;;;;;0.90;0.90;;;17.10;95.00;;;;;;5016490;28;20419;-70
2023/05/14 11:37:05;;;;;;;0.90;0.70;;;16.90;95.10;;;;;;5016124;28;20409;-70
2023/05/14 11:39:32;;;;;;;0.50;0.50;;;17.20;95.50;;;;;;5016686;28;20184;-70
2023/05/14 11:42:00;;;;;;;0.87;0.87;;;17.30;94.70;;;;;;4998467;28;21043;-71
2023/05/14 11:44:26;;;;;;;0.70;0.57;;;17.30;94.70;;;;;;5016331;28;20830;-70
2023/05/14 11:46:57;;;;;;;0.50;0.50;;;17.50;95.20;;;;;;5015967;28;20444;-70
2023/05/14 11:49:25;;;;;;;1.23;1.13;;;17.60;92.90;;;;;;5016041;28;20169;-70
2023/05/14 11:52:03;;;;;;;0.60;0.60;;;17.70;91.90;;;;;;5015156;28;20795;-70
2023/05/14 11:54:30;;;;;;;0.60;0.47;;;17.80;91.70;;;;;;5016135;28;20879;-70
2023/05/14 11:56:56;;;;;;;0.50;0.50;;;18.00;91.20;;;;;;5015889;28;20853;-70
2023/05/14 11:59:30;;;;;;;1.07;1.07;;;17.90;92.40;;;;;;5016097;28;20953;-70
2023/05/14 12:01:57;;;;;;;0.97;0.77;;;17.10;92.00;;;;;;5015639;28;20468;-69
2023/05/14 12:04:23;;;;;;;0.70;0.70;;;16.40;93.20;;;;;;5015749;28;20407;-70
2023/05/14 12:06:52;;;;;;;0.93;0.93;;;15.80;93.50;;;;;;5015666;28;20501;-70
2023/05/14 12:09:22;;;;;;;1.50;1.40;;;15.20;94.30;;;;;;5015821;28;20167;-71
2023/05/14 12:11:49;;;;;;;0.57;0.57;;;15.10;95.20;;;;;;5015181;28;20965;-71
2023/05/14 12:14:20;;;;;;;0.73;0.73;;;15.10;95.40;;;;;;5015718;28;20410;-70
2023/05/14 12:16:46;;;;;;;2.03;1.23;;;15.00;95.40;;;;;;5015536;28;20488;-70
2023/05/14 12:19:17;;;;;;;0.93;0.87;;;14.90;95.90;;;;;;5015487;28;20420;-70
2023/05/14 12:21:45;;;;;;;0.87;0.47;;;14.90;96.50;;;;;;5015411;28;20434;-70
2023/05/14 12:24:13;;;;;;;2.30;0.80;;;14.90;96.80;;;;;;5015961;28;20452;-70
2023/05/14 12:26:39;;;;;;;0.73;0.60;;;14.80;97.20;;;;;;5015139;28;20497;-71
2023/05/14 12:29:08;;;;;;;0.47;0.47;;;14.80;97.90;;;;;;5015332;28;20484;-71
2023/05/14 12:31:35;;;;;;;0.60;0.60;;;14.80;98.10;;;;;;5015246;28;20425;-71
2023/05/14 12:34:01;;;;;;;1.10;0.67;;;14.60;98.30;;;;;;5015365;28;20405;-70
2023/05/14 12:36:27;;;;;;;0.60;0.60;;;14.50;98.40;;;;;;5015064;28;20897;-71
2023/05/14 12:39:02;;;;;;;1.27;1.13;;;14.40;98.50;;;;;;5015259;28;20399;-69
2023/05/14 12:41:32;;;;;;;0.90;0.70;;;14.40;98.30;;;;;;5014944;28;20179;-70
2023/05/14 12:43:58;;;;;;;0.90;0.90;;;14.40;98.70;;;;;;5015265;28;20407;-71
2023/05/14 12:46:25;;;;;;;1.17;0.70;;;14.40;98.60;;;;;;5014872;28;20417;-70
2023/05/14 12:48:50;;;;;;;0.60;0.60;;;14.40;98.80;;;;;;5015089;28;20428;-70